Terminal Aerodrome Forecast
Issued by NWS

Home | Current Version | Previous Version | Text Only | Print | Product List | Glossary On
Versions: 1 2 3 4 5 6 7 8 9 10 11 12 13 14
000
FTUS43 KJKL 281738
TAFSJS
TAF
KSJS 281738Z 2818/2918 21005KT P6SM VCSH SCT050
     FM282200 VRB03KT P6SM BKN200
     FM291000 00000KT 3SM BR VCSH BKN040
     FM291300 VRB03KT P6SM VCSH BKN120=

USA.gov is the U.S. government's official web portal to all federal, state and local government web resources and services.